Time;durP1;ratioP1;P1;durP2;ratioP2;P2;SDS_P1;SDS_P2;PMS_P1;PMS_P2;Temp;Humidity;BMP_temperature;BMP_pressure;BME280_temperature;BME280_humidity;BME280_pressure;Samples;Min_cycle;Max_cycle;Signal;HPM_P1;HPM_P2
2023/06/16 00:01:57;;;;;;;7.40;6.90;;;;;;;20.13;44.10;99446.63;4962644;28;20214;-81
2023/06/16 00:04:25;;;;;;;6.37;5.77;;;;;;;19.95;44.48;99449.38;4960732;28;20359;-81
2023/06/16 00:06:52;;;;;;;5.33;4.83;;;;;;;19.90;44.43;99451.69;4971064;28;21015;-81
2023/06/16 00:09:21;;;;;;;6.93;5.80;;;;;;;19.91;44.37;99445.38;4963134;28;20816;-81
2023/06/16 00:11:47;;;;;;;7.00;6.20;;;;;;;19.89;44.39;99447.38;4959061;28;20470;-82
2023/06/16 00:14:13;;;;;;;8.50;4.90;;;;;;;19.91;44.44;99449.88;4966152;28;20808;-82
2023/06/16 00:16:39;;;;;;;5.73;5.33;;;;;;;19.91;44.45;99447.22;4964899;28;20450;-79
2023/06/16 00:19:04;;;;;;;8.33;6.53;;;;;;;19.81;44.98;99458.00;4962635;28;20211;-78
2023/06/16 00:21:35;;;;;;;6.40;5.80;;;;;;;19.65;45.67;99448.91;4952134;28;20934;-78
2023/06/16 00:24:02;;;;;;;6.13;5.53;;;;;;;19.51;46.24;99451.34;4956642;28;20222;-78
2023/06/16 00:26:27;;;;;;;6.70;6.00;;;;;;;19.31;46.95;99456.03;4955923;28;20993;-82
2023/06/16 00:28:54;;;;;;;6.70;6.20;;;;;;;19.12;47.59;99457.94;4960188;28;20440;-83
2023/06/16 00:31:20;;;;;;;6.50;5.90;;;;;;;18.99;47.76;99458.34;4952984;28;20551;-78
2023/06/16 00:33:46;;;;;;;6.83;6.33;;;;;;;18.91;48.20;99449.47;4945612;28;20505;-79
2023/06/16 00:36:15;;;;;;;6.23;5.60;;;;;;;18.79;48.86;99457.72;4938366;28;21199;-78
2023/06/16 00:38:40;;;;;;;6.27;5.77;;;;;;;18.70;48.77;99455.09;4954363;28;20467;-79
2023/06/16 00:41:06;;;;;;;7.10;6.50;;;;;;;18.64;49.29;99447.72;4941869;28;20645;-79
2023/06/16 00:43:31;;;;;;;7.83;6.53;;;;;;;18.54;49.51;99453.13;4962303;28;20225;-81
2023/06/16 00:45:58;;;;;;;6.57;6.07;;;;;;;18.43;49.86;99458.69;4942677;28;20198;-80
2023/06/16 00:48:24;;;;;;;8.63;5.57;;;;;;;18.33;50.26;99456.06;4959363;28;20709;-82
2023/06/16 00:50:50;;;;;;;6.47;6.03;;;;;;;18.24;50.67;99455.16;4945341;28;20472;-81
2023/06/16 00:53:16;;;;;;;7.43;6.73;;;;;;;18.16;50.91;99457.75;4962196;28;20534;-81
2023/06/16 00:55:42;;;;;;;6.50;5.93;;;;;;;18.14;50.75;99460.53;4957248;28;20974;-81
2023/06/16 00:58:08;;;;;;;7.37;5.70;;;;;;;18.20;50.88;99459.13;4951695;28;20474;-81
2023/06/16 01:00:36;;;;;;;6.33;5.70;;;;;;;18.28;50.40;99463.66;4940296;28;20224;-78
2023/06/16 01:03:05;;;;;;;6.80;6.20;;;;;;;18.35;50.46;99465.56;4939570;28;20569;-82
2023/06/16 01:05:32;;;;;;;6.67;6.00;;;;;;;18.45;50.17;99464.69;4936672;28;20492;-77
2023/06/16 01:08:13;;;;;;;6.57;5.97;;;;;;;18.55;50.21;99465.44;4946331;28;20445;-77
2023/06/16 01:11:00;;;;;;;6.60;5.90;;;;;;;18.58;49.80;99465.16;4958452;28;20459;-78
2023/06/16 01:13:36;;;;;;;6.37;5.77;;;;;;;18.57;49.91;99466.13;4949454;28;20498;-79
2023/06/16 01:16:03;;;;;;;6.57;5.97;;;;;;;18.60;49.72;99455.16;4969601;28;20461;-79
2023/06/16 01:18:31;;;;;;;6.10;5.43;;;;;;;18.65;49.72;99458.22;4959646;28;20861;-80
2023/06/16 01:21:21;;;;;;;12.43;6.90;;;;;;;18.67;49.69;99458.91;4943262;28;20548;-79
2023/06/16 01:23:53;;;;;;;6.93;6.27;;;;;;;18.69;49.36;99464.91;4944807;28;20496;-81
2023/06/16 01:26:22;;;;;;;7.70;6.10;;;;;;;18.64;49.46;99461.88;4953360;28;20513;-78
2023/06/16 01:28:50;;;;;;;7.10;6.40;;;;;;;18.50;49.63;99473.06;4953964;28;20465;-80
2023/06/16 01:31:19;;;;;;;6.40;5.80;;;;;;;18.41;49.96;99473.94;4944231;28;20434;-81
2023/06/16 01:33:46;;;;;;;7.27;6.60;;;;;;;18.39;49.87;99467.94;4962741;28;20550;-81
2023/06/16 01:36:14;;;;;;;7.20;6.50;;;;;;;18.45;50.41;99472.66;4939145;28;20458;-82
2023/06/16 01:38:42;;;;;;;7.23;6.50;;;;;;;18.45;49.86;99476.16;4943553;28;20265;-78
2023/06/16 01:41:09;;;;;;;6.77;6.07;;;;;;;18.39;50.17;99482.09;4953398;28;20451;-81
2023/06/16 01:43:39;;;;;;;6.03;5.60;;;;;;;18.32;50.44;99479.19;4963785;28;20515;-79
2023/06/16 01:46:05;;;;;;;7.17;6.50;;;;;;;18.33;50.36;99480.88;4957428;28;20503;-79
2023/06/16 01:48:31;;;;;;;6.37;5.77;;;;;;;18.37;50.15;99470.75;4940468;28;20444;-79
2023/06/16 01:50:57;;;;;;;7.70;5.60;;;;;;;18.44;49.71;99466.50;4964772;28;20444;-78
2023/06/16 01:53:23;;;;;;;6.50;5.90;;;;;;;18.50;49.58;99473.06;4948124;28;20449;-81
2023/06/16 01:55:50;;;;;;;6.10;5.47;;;;;;;18.50;49.05;99468.56;4948249;28;20452;-80
2023/06/16 01:58:17;;;;;;;5.40;4.90;;;;;;;18.47;48.86;99468.00;4938739;28;20441;-78
2023/06/16 02:00:49;;;;;;;5.87;5.37;;;;;;;18.47;48.79;99476.00;4951056;28;20474;-79
2023/06/16 02:03:21;;;;;;;6.23;5.13;;;;;;;18.43;48.30;99470.16;4938948;28;20561;-81
2023/06/16 02:05:50;;;;;;;7.15;6.45;;;;;;;18.45;48.47;99476.16;4958627;28;21010;-78
2023/06/16 02:08:21;;;;;;;5.97;5.40;;;;;;;18.49;48.35;99471.34;4948903;28;20197;-82
2023/06/16 02:10:47;;;;;;;6.83;6.20;;;;;;;18.53;48.18;99467.44;5001497;23;21029;-81
2023/06/16 02:13:13;;;;;;;5.53;5.13;;;;;;;18.54;48.11;99469.91;4922691;29;20748;-77
2023/06/16 02:15:39;;;;;;;12.70;7.23;;;;;;;18.41;48.76;99469.44;4925881;28;20474;-78
2023/06/16 02:18:04;;;;;;;7.07;6.47;;;;;;;18.20;49.66;99477.75;4929265;28;20919;-79
2023/06/16 02:20:30;;;;;;;8.70;7.03;;;;;;;17.94;50.25;99482.91;4926858;29;20222;-79
2023/06/16 02:22:55;;;;;;;5.83;5.40;;;;;;;17.74;50.66;99476.84;4947993;28;20293;-79
2023/06/16 02:25:21;;;;;;;6.30;5.80;;;;;;;17.66;51.07;99472.25;4947956;28;20288;-79
2023/06/16 02:27:47;;;;;;;7.00;6.23;;;;;;;17.64;51.07;99476.03;4943786;28;20462;-81
2023/06/16 02:30:13;;;;;;;7.87;6.43;;;;;;;17.64;51.27;99473.38;4948183;28;20706;-81
2023/06/16 02:32:39;;;;;;;6.82;5.90;;;;;;;17.65;51.04;99473.22;4948367;28;20313;-78
2023/06/16 02:35:06;;;;;;;6.25;5.75;;;;;;;17.71;51.03;99477.09;4926780;28;20464;-80
2023/06/16 02:37:36;;;;;;;6.57;5.83;;;;;;;17.78;50.69;99474.72;4922680;29;20227;-79
2023/06/16 02:40:04;;;;;;;6.40;5.80;;;;;;;17.82;50.61;99478.75;4930190;29;20477;-78
2023/06/16 02:42:30;;;;;;;5.87;5.37;;;;;;;17.86;50.28;99481.00;4943599;29;20870;-79
2023/06/16 02:44:56;;;;;;;6.20;5.60;;;;;;;17.86;50.24;99470.34;4925779;28;20455;-78
2023/06/16 02:47:22;;;;;;;5.83;5.33;;;;;;;17.87;50.16;99464.03;4923679;29;20911;-78
2023/06/16 02:49:48;;;;;;;6.00;5.40;;;;;;;17.89;50.09;99477.19;4929697;28;20215;-78
2023/06/16 02:52:15;;;;;;;6.33;5.60;;;;;;;17.85;50.15;99478.50;4934180;28;20818;-78
2023/06/16 02:54:41;;;;;;;7.00;6.30;;;;;;;17.73;50.65;99475.16;4921529;29;20427;-81
2023/06/16 02:57:10;;;;;;;8.67;6.10;;;;;;;17.59;51.22;99470.31;4907362;29;20496;-78
2023/06/16 02:59:42;;;;;;;7.50;5.10;;;;;;;17.42;51.39;99475.41;4930758;28;20514;-78
2023/06/16 03:02:09;;;;;;;7.20;6.33;;;;;;;17.33;51.66;99470.13;4929913;28;20486;-80
2023/06/16 03:04:48;;;;;;;9.80;7.20;;;;;;;17.28;51.79;99467.88;4922016;29;20529;-81
2023/06/16 03:07:20;;;;;;;5.87;5.27;;;;;;;17.23;52.08;99478.13;4923529;29;20446;-80
2023/06/16 03:09:46;;;;;;;5.37;4.87;;;;;;;17.21;52.09;99475.59;4931397;29;20468;-78
2023/06/16 03:12:12;;;;;;;7.20;6.60;;;;;;;17.22;51.94;99479.09;4927156;29;21149;-79
2023/06/16 03:14:46;;;;;;;6.00;5.40;;;;;;;17.15;52.06;99481.50;4930250;29;20204;-78
2023/06/16 03:17:14;;;;;;;6.77;6.17;;;;;;;17.01;52.65;99489.88;4928213;28;20545;-79
2023/06/16 03:19:42;;;;;;;7.30;6.30;;;;;;;16.86;53.17;99484.19;4927606;28;20601;-79
2023/06/16 03:22:08;;;;;;;6.97;6.37;;;;;;;16.73;53.47;99484.41;4921268;29;20202;-79
2023/06/16 03:24:41;;;;;;;6.83;6.20;;;;;;;16.65;53.79;99489.59;4924439;29;20592;-79
2023/06/16 03:27:08;;;;;;;6.60;5.93;;;;;;;16.57;54.21;99490.28;4932559;29;20444;-80
2023/06/16 03:29:53;;;;;;;6.83;6.13;;;;;;;16.50;54.26;99491.81;4974594;23;21140;-79
2023/06/16 03:32:19;;;;;;;7.03;6.33;;;;;;;16.48;54.68;99487.63;4923105;28;20456;-81
2023/06/16 03:34:48;;;;;;;7.90;7.20;;;;;;;16.46;55.19;99494.88;4926314;29;21070;-81
2023/06/16 03:37:16;;;;;;;7.40;6.10;;;;;;;16.40;55.34;99512.19;4927799;29;20697;-78
2023/06/16 03:39:43;;;;;;;7.40;6.50;;;;;;;16.39;55.15;99499.91;4944016;28;20470;-80
2023/06/16 03:42:08;;;;;;;6.93;5.60;;;;;;;16.41;55.01;99513.00;4905034;29;20822;-78
2023/06/16 03:44:35;;;;;;;7.40;6.67;;;;;;;16.37;55.09;99509.81;4913138;29;20212;-80
2023/06/16 03:47:04;;;;;;;7.00;6.30;;;;;;;16.33;55.15;99501.28;4928698;29;20469;-79
2023/06/16 03:49:32;;;;;;;7.45;6.75;;;;;;;16.29;55.24;99507.84;4963442;23;20226;-78
2023/06/16 03:51:59;;;;;;;7.77;7.07;;;;;;;16.26;55.35;99509.94;4940219;28;20224;-79
2023/06/16 03:54:40;;;;;;;7.50;6.65;;;;;;;16.28;55.17;99507.97;4944945;28;20466;-83
2023/06/16 03:57:06;;;;;;;7.60;6.80;;;;;;;16.33;55.06;99505.75;4957677;28;20217;-79
2023/06/16 03:59:32;;;;;;;6.13;5.60;;;;;;;16.37;55.10;99509.81;4948108;28;20539;-82
2023/06/16 04:02:07;;;;;;;8.07;5.88;;;;;;;16.43;54.64;99511.06;4915716;29;20524;-82
2023/06/16 04:04:51;;;;;;;6.63;5.88;;;;;;;16.53;54.43;99504.81;4925051;29;20205;-79
2023/06/16 04:07:19;;;;;;;6.45;5.85;;;;;;;16.64;54.17;99510.97;4931328;29;20199;-83
2023/06/16 04:09:47;;;;;;;7.70;6.00;;;;;;;16.74;53.88;99511.78;4928312;29;20211;-81
2023/06/16 04:12:13;;;;;;;6.90;6.20;;;;;;;16.80;53.76;99505.97;4936231;28;20750;-79
2023/06/16 04:14:39;;;;;;;6.13;4.87;;;;;;;16.89;53.69;99512.25;4931514;29;20245;-80
2023/06/16 04:17:05;;;;;;;5.93;5.30;;;;;;;16.98;53.25;99512.22;4932277;29;20855;-79
2023/06/16 04:19:31;;;;;;;9.27;6.37;;;;;;;17.07;52.97;99513.22;4988661;23;20498;-81
2023/06/16 04:21:58;;;;;;;6.63;6.10;;;;;;;17.15;52.67;99513.34;4945601;28;20259;-81
2023/06/16 04:24:31;;;;;;;6.18;5.30;;;;;;;17.25;52.37;99514.16;4914204;29;20488;-80
2023/06/16 04:27:38;;;;;;;6.67;5.40;;;;;;;17.37;51.82;99516.66;4912407;29;20221;-81
2023/06/16 04:30:39;;;;;;;9.90;6.50;;;;;;;17.43;51.72;99522.22;4858863;29;20492;-79
2023/06/16 04:33:05;;;;;;;6.40;5.80;;;;;;;17.42;51.92;99525.84;4848531;29;20591;-79
2023/06/16 04:35:34;;;;;;;7.07;6.38;;;;;;;17.35;52.46;99527.41;4910528;29;20427;-83
2023/06/16 04:38:11;;;;;;;7.00;6.40;;;;;;;17.22;52.74;99518.91;4913483;29;20587;-81
2023/06/16 04:40:40;;;;;;;7.10;6.43;;;;;;;17.08;53.21;99520.19;4908978;29;20518;-81
2023/06/16 04:43:27;;;;;;;7.67;6.60;;;;;;;16.99;53.46;99521.88;4923520;29;20453;-81
2023/06/16 04:45:52;;;;;;;7.50;6.53;;;;;;;16.96;53.62;99522.16;4904458;29;20511;-82
2023/06/16 04:48:19;;;;;;;8.03;7.37;;;;;;;17.15;53.01;99523.97;4916245;29;20455;-82
2023/06/16 04:50:45;;;;;;;7.07;6.47;;;;;;;17.51;52.09;99521.50;4925938;28;20235;-78
2023/06/16 04:53:11;;;;;;;8.00;7.20;;;;;;;17.96;51.23;99517.28;4897131;29;20363;-81
2023/06/16 04:55:37;;;;;;;6.93;6.23;;;;;;;18.43;50.24;99522.50;4914191;29;20699;-81
2023/06/16 04:58:03;;;;;;;6.77;6.17;;;;;;;18.88;48.97;99519.00;4910919;29;20248;-81
2023/06/16 05:00:30;;;;;;;6.90;5.80;;;;;;;19.26;48.22;99522.28;4909417;29;20475;-80
2023/06/16 05:02:56;;;;;;;6.30;5.80;;;;;;;19.57;47.59;99526.13;4898082;29;20462;-81
2023/06/16 05:05:22;;;;;;;7.40;6.53;;;;;;;19.87;46.70;99522.19;4913111;29;20642;-78
2023/06/16 05:07:51;;;;;;;7.67;6.97;;;;;;;20.23;46.15;99522.00;4915777;29;20503;-81
2023/06/16 05:10:16;;;;;;;7.63;6.83;;;;;;;20.57;45.37;99517.59;4915408;29;20232;-80
2023/06/16 05:12:42;;;;;;;7.13;6.43;;;;;;;20.85;44.44;99516.31;4891449;29;20439;-83
2023/06/16 05:15:16;;;;;;;8.63;7.83;;;;;;;21.08;43.75;99518.31;4926144;28;20662;-80
2023/06/16 05:18:04;;;;;;;6.83;6.23;;;;;;;21.29;43.38;99521.28;4893364;29;20486;-80
2023/06/16 05:20:34;;;;;;;7.37;6.13;;;;;;;21.58;42.67;99525.28;4886916;29;20454;-87
2023/06/16 05:23:02;;;;;;;6.60;6.00;;;;;;;21.95;42.17;99518.47;4871546;29;20443;-82
2023/06/16 05:25:28;;;;;;;9.90;6.00;;;;;;;22.30;41.17;99514.50;4891558;29;20446;-79
2023/06/16 05:27:54;;;;;;;9.23;6.73;;;;;;;22.59;40.75;99508.47;4903302;29;20442;-80
2023/06/16 05:30:20;;;;;;;10.23;6.90;;;;;;;22.91;39.96;99514.63;4904917;29;20509;-79
2023/06/16 05:33:02;;;;;;;5.70;5.20;;;;;;;23.37;39.16;99518.06;4902980;29;20590;-79
2023/06/16 05:35:31;;;;;;;6.40;5.60;;;;;;;23.84;38.28;99519.63;4892520;29;20770;-79
2023/06/16 05:38:02;;;;;;;5.47;4.97;;;;;;;24.17;36.91;99516.53;4889686;29;21004;-82
2023/06/16 05:40:28;;;;;;;5.77;5.20;;;;;;;24.29;36.52;99520.38;4936412;23;20484;-79
2023/06/16 05:42:54;;;;;;;7.23;5.43;;;;;;;24.51;35.96;99510.53;4959045;28;20527;-80
2023/06/16 05:45:31;;;;;;;7.60;5.60;;;;;;;24.77;35.30;99513.72;4952479;28;20270;-79
2023/06/16 05:47:57;;;;;;;5.50;4.97;;;;;;;25.03;34.74;99505.88;4953108;28;20296;-79
2023/06/16 05:50:28;;;;;;;7.70;4.83;;;;;;;25.45;34.20;99516.78;4957986;28;20507;-81
2023/06/16 05:53:12;;;;;;;5.80;5.03;;;;;;;25.89;33.15;99510.25;4940677;28;20431;-81
2023/06/16 05:59:07;;;;;;;4.93;4.53;;;;;;;26.79;31.87;99506.44;4931909;28;20484;-81
2023/06/16 06:02:13;;;;;;;6.23;5.63;;;;;;;27.21;31.22;99508.97;5001910;23;20468;-81
2023/06/16 06:04:45;;;;;;;5.10;4.53;;;;;;;27.40;30.28;99510.81;4908840;29;20798;-81
2023/06/16 06:07:11;;;;;;;6.67;5.03;;;;;;;27.29;30.11;99519.53;4937213;29;20448;-81
2023/06/16 06:09:36;;;;;;;5.47;4.97;;;;;;;27.28;30.25;99523.28;4915988;29;20458;-81
2023/06/16 06:12:03;;;;;;;7.63;5.47;;;;;;;27.30;30.34;99521.19;4908339;29;20210;-81
2023/06/16 06:14:29;;;;;;;5.53;5.13;;;;;;;27.28;30.10;99525.97;4902153;29;20457;-81
2023/06/16 06:16:55;;;;;;;5.83;4.93;;;;;;;27.30;29.84;99524.72;4914657;29;21015;-81
2023/06/16 06:19:23;;;;;;;6.00;5.50;;;;;;;27.53;29.84;99521.56;4918418;29;20307;-80
2023/06/16 06:21:48;;;;;;;6.10;5.00;;;;;;;27.70;29.20;99529.22;4895566;29;20199;-80
2023/06/16 06:24:14;;;;;;;5.37;4.97;;;;;;;27.82;29.54;99527.56;4910634;29;20470;-81
2023/06/16 06:26:40;;;;;;;6.00;5.40;;;;;;;27.88;29.01;99532.13;4898136;29;20257;-81
2023/06/16 06:29:05;;;;;;;7.90;6.10;;;;;;;28.08;28.84;99540.16;4897647;29;20231;-81
2023/06/16 06:31:32;;;;;;;5.87;5.33;;;;;;;28.39;28.52;99538.56;4901061;29;20215;-81
2023/06/16 06:33:57;;;;;;;5.10;4.60;;;;;;;28.53;28.62;99545.59;4901969;29;20475;-81
2023/06/16 06:36:27;;;;;;;5.10;4.70;;;;;;;28.74;28.38;99551.72;4896433;29;20455;-81
2023/06/16 06:38:55;;;;;;;7.00;6.30;;;;;;;28.85;28.02;99549.16;4890361;29;20483;-81
2023/06/16 06:41:22;;;;;;;6.20;5.63;;;;;;;28.88;27.96;99548.72;4904459;29;20487;-80
2023/06/16 06:43:49;;;;;;;5.67;5.10;;;;;;;29.10;27.58;99545.66;4883226;29;20557;-81
2023/06/16 06:46:16;;;;;;;6.97;5.00;;;;;;;29.40;27.18;99550.41;4901457;29;20791;-80
2023/06/16 06:48:43;;;;;;;7.33;5.03;;;;;;;29.71;27.20;99547.66;4899121;29;20203;-79
2023/06/16 06:51:13;;;;;;;6.47;5.87;;;;;;;29.90;26.75;99551.22;4896103;29;20886;-78
2023/06/16 06:53:39;;;;;;;6.60;5.90;;;;;;;30.19;26.85;99552.34;4907584;29;20522;-82
2023/06/16 06:56:04;;;;;;;9.77;6.73;;;;;;;30.44;26.43;99556.84;4896567;29;20461;-82
2023/06/16 06:58:30;;;;;;;6.73;6.20;;;;;;;30.58;26.28;99561.03;4912278;29;20277;-81
2023/06/16 07:00:57;;;;;;;6.57;5.23;;;;;;;30.51;26.59;99560.28;4924229;29;20230;-82
2023/06/16 07:03:22;;;;;;;6.80;6.20;;;;;;;30.72;26.06;99558.94;4930602;29;20467;-82
2023/06/16 07:05:47;;;;;;;7.13;6.57;;;;;;;30.85;25.36;99557.97;4922661;29;20495;-82
2023/06/16 07:08:13;;;;;;;7.10;6.50;;;;;;;30.59;25.84;99559.94;4920723;29;20247;-82
2023/06/16 07:10:38;;;;;;;6.40;5.80;;;;;;;30.59;25.55;99561.84;4919250;29;20706;-83
2023/06/16 07:13:06;;;;;;;6.40;5.83;;;;;;;30.80;25.30;99565.94;4928113;29;20222;-83
2023/06/16 07:15:32;;;;;;;7.27;6.67;;;;;;;30.85;25.23;99566.94;4924826;29;20200;-83
2023/06/16 07:17:57;;;;;;;6.73;5.97;;;;;;;30.81;25.16;99568.47;4925904;29;20506;-82
2023/06/16 07:20:23;;;;;;;7.53;6.83;;;;;;;30.69;24.77;99566.72;4925276;29;20570;-82
2023/06/16 07:22:48;;;;;;;5.87;5.33;;;;;;;30.43;25.56;99566.88;4925219;29;20254;-82
2023/06/16 07:25:15;;;;;;;6.33;5.53;;;;;;;30.48;25.63;99568.03;4923958;29;20232;-83
2023/06/16 07:27:41;;;;;;;6.63;6.03;;;;;;;30.44;25.62;99578.53;4923209;29;20656;-83
2023/06/16 07:30:07;;;;;;;5.77;5.27;;;;;;;30.54;25.23;99578.81;4924498;29;20504;-83
2023/06/16 07:32:33;;;;;;;7.57;6.20;;;;;;;30.62;25.55;99574.94;4921794;29;20209;-83
2023/06/16 07:34:58;;;;;;;6.20;5.70;;;;;;;30.83;25.39;99574.47;4933254;29;20448;-83
2023/06/16 07:37:23;;;;;;;6.90;6.33;;;;;;;31.13;25.03;99575.47;4928838;29;20489;-83
2023/06/16 07:39:49;;;;;;;6.97;6.20;;;;;;;31.11;25.35;99567.59;4925459;29;20219;-82
2023/06/16 07:42:16;;;;;;;6.97;6.37;;;;;;;31.05;25.38;99577.47;4922845;29;20208;-82
2023/06/16 07:44:41;;;;;;;6.30;5.80;;;;;;;30.79;25.02;99570.53;4920401;29;20212;-82
2023/06/16 07:47:07;;;;;;;7.23;5.20;;;;;;;30.76;25.23;99572.88;4924259;29;20540;-83
2023/06/16 07:49:32;;;;;;;6.37;5.87;;;;;;;30.96;25.16;99572.63;4924881;29;20205;-83
2023/06/16 07:51:58;;;;;;;6.67;6.07;;;;;;;31.04;24.76;99569.56;4927628;29;20603;-84
2023/06/16 07:54:23;;;;;;;8.23;6.50;;;;;;;30.94;25.18;99572.84;4921819;29;20251;-83
2023/06/16 07:56:50;;;;;;;6.20;5.60;;;;;;;31.01;25.46;99565.44;4935505;29;20291;-83
2023/06/16 07:59:15;;;;;;;7.67;5.30;;;;;;;31.22;24.49;99563.25;4930054;29;20232;-83
2023/06/16 08:01:42;;;;;;;5.53;5.10;;;;;;;31.48;24.78;99567.41;4934769;29;20475;-83
2023/06/16 08:04:08;;;;;;;5.70;5.10;;;;;;;31.55;24.47;99565.44;4926372;29;20862;-83
2023/06/16 08:06:33;;;;;;;7.00;6.30;;;;;;;31.63;24.08;99554.22;4934963;28;20924;-83
2023/06/16 08:08:59;;;;;;;5.77;5.37;;;;;;;31.67;23.91;99549.13;4929925;29;20628;-83
2023/06/16 08:11:24;;;;;;;6.60;6.00;;;;;;;31.51;23.96;99550.66;4937975;29;20243;-83
2023/06/16 08:13:49;;;;;;;5.17;4.67;;;;;;;31.48;24.45;99551.13;4931368;29;20316;-83
2023/06/16 08:16:16;;;;;;;6.20;4.97;;;;;;;31.29;24.57;99547.66;4938411;29;20308;-82
2023/06/16 08:18:42;;;;;;;5.43;4.87;;;;;;;31.08;24.48;99554.47;4940309;29;20221;-83
2023/06/16 08:21:07;;;;;;;5.70;5.30;;;;;;;31.16;24.26;99547.88;4936025;29;20474;-83
2023/06/16 08:23:32;;;;;;;6.07;5.57;;;;;;;31.20;24.18;99540.94;4929464;29;20768;-83
2023/06/16 08:25:59;;;;;;;5.97;5.40;;;;;;;31.18;24.31;99543.06;4918937;29;20303;-83
2023/06/16 08:28:25;;;;;;;4.93;4.43;;;;;;;31.09;24.31;99543.41;4936131;29;20760;-83
2023/06/16 08:30:51;;;;;;;5.50;5.00;;;;;;;31.02;24.25;99542.66;4932364;29;21288;-83
2023/06/16 08:33:16;;;;;;;5.83;5.33;;;;;;;30.95;24.32;99535.72;4938162;29;20211;-83
2023/06/16 08:35:42;;;;;;;5.47;4.97;;;;;;;30.91;24.49;99537.22;4939440;29;20207;-83
2023/06/16 08:38:07;;;;;;;5.80;5.30;;;;;;;31.00;24.47;99538.53;4940693;29;20273;-83
2023/06/16 08:40:32;;;;;;;7.40;5.17;;;;;;;30.93;24.61;99544.06;4934436;29;20229;-82
2023/06/16 08:43:04;;;;;;;5.63;4.87;;;;;;;30.93;24.34;99535.94;4936557;29;20274;-83
2023/06/16 08:45:30;;;;;;;4.80;4.30;;;;;;;30.88;24.00;99534.97;4940030;29;20222;-80
2023/06/16 08:47:56;;;;;;;6.40;5.30;;;;;;;30.72;24.35;99541.84;4919984;29;20558;-81
2023/06/16 08:50:23;;;;;;;5.70;4.70;;;;;;;30.63;24.23;99538.66;4924789;29;20218;-81
2023/06/16 08:52:52;;;;;;;5.93;4.93;;;;;;;30.64;24.58;99540.28;4936086;29;21058;-80
2023/06/16 08:55:19;;;;;;;4.53;4.13;;;;;;;30.56;24.60;99536.03;4938700;29;20838;-80
2023/06/16 08:57:47;;;;;;;5.10;4.60;;;;;;;30.63;24.19;99530.53;4936046;29;20484;-81
2023/06/16 09:00:14;;;;;;;5.07;4.53;;;;;;;30.67;24.00;99529.00;4939714;29;20915;-80
2023/06/16 09:02:41;;;;;;;5.57;4.17;;;;;;;30.65;24.02;99526.53;4932596;29;20468;-80
2023/06/16 09:05:08;;;;;;;7.57;5.30;;;;;;;30.62;24.50;99526.13;4943462;29;20510;-80
2023/06/16 09:07:35;;;;;;;5.30;4.90;;;;;;;30.72;24.30;99529.13;4935682;29;20207;-84
2023/06/16 09:10:00;;;;;;;5.50;5.00;;;;;;;30.90;23.75;99527.44;4939255;29;20463;-80
2023/06/16 09:12:27;;;;;;;8.13;4.87;;;;;;;31.11;23.35;99520.63;4940839;29;20878;-80
2023/06/16 09:14:53;;;;;;;5.17;4.53;;;;;;;31.25;23.50;99512.03;4937702;29;20215;-80
2023/06/16 09:17:27;;;;;;;7.90;4.87;;;;;;;31.42;22.75;99514.06;4938050;29;20548;-81
2023/06/16 09:19:53;;;;;;;5.80;4.40;;;;;;;31.36;23.02;99515.81;4933877;29;20520;-84
2023/06/16 09:22:23;;;;;;;5.33;4.93;;;;;;;31.37;23.02;99514.78;4938796;29;20467;-80
2023/06/16 09:24:55;;;;;;;5.90;5.40;;;;;;;31.12;22.96;99511.44;4937739;29;20492;-81
2023/06/16 09:27:23;;;;;;;4.03;3.73;;;;;;;31.00;23.40;99511.41;4935502;29;20458;-82
2023/06/16 09:29:57;;;;;;;5.33;4.90;;;;;;;30.98;23.69;99508.94;4938858;29;20468;-84
2023/06/16 09:32:23;;;;;;;4.77;4.27;;;;;;;31.03;22.64;99502.81;4932591;29;20459;-76
2023/06/16 09:34:51;;;;;;;6.20;4.20;;;;;;;30.96;22.55;99511.06;4940200;29;20448;-81
2023/06/16 09:37:19;;;;;;;5.17;4.73;;;;;;;30.99;22.40;99504.34;4939647;29;20460;-80
2023/06/16 09:39:45;;;;;;;4.00;3.70;;;;;;;31.11;22.64;99501.63;4936558;29;20703;-81
2023/06/16 09:42:11;;;;;;;5.30;4.30;;;;;;;31.31;22.02;99499.41;4932273;29;20471;-84
2023/06/16 09:44:37;;;;;;;7.63;4.80;;;;;;;31.37;22.13;99498.50;4934681;29;20209;-85
2023/06/16 09:47:02;;;;;;;5.90;4.37;;;;;;;31.41;21.63;99504.28;4937095;29;20459;-83
2023/06/16 09:49:28;;;;;;;3.77;3.50;;;;;;;31.45;21.25;99500.03;4944888;29;20355;-80
2023/06/16 09:51:56;;;;;;;4.27;3.80;;;;;;;31.55;20.51;99491.31;4953314;29;20200;-83
2023/06/16 09:54:23;;;;;;;3.27;2.97;;;;;;;31.69;20.33;99495.41;4948319;29;20217;-85
2023/06/16 09:56:49;;;;;;;4.33;3.73;;;;;;;31.74;20.22;99487.38;4934077;29;20513;-81
2023/06/16 09:59:15;;;;;;;3.97;3.67;;;;;;;31.55;20.59;99489.41;4936133;29;21029;-81
2023/06/16 10:01:43;;;;;;;4.50;4.10;;;;;;;31.39;20.79;99488.22;4938352;29;20889;-86
2023/06/16 10:04:15;;;;;;;4.20;3.80;;;;;;;31.40;20.52;99484.44;4939982;29;20467;-84
2023/06/16 10:06:48;;;;;;;4.37;3.97;;;;;;;31.48;19.74;99488.69;4942325;29;20497;-81
2023/06/16 10:09:17;;;;;;;5.07;4.37;;;;;;;31.55;20.35;99477.72;4945563;29;20467;-81
2023/06/16 10:11:53;;;;;;;4.90;3.73;;;;;;;31.57;20.21;99487.28;4941787;29;20813;-81
2023/06/16 10:14:20;;;;;;;3.53;3.13;;;;;;;31.66;19.58;99482.31;4936684;29;20473;-80
2023/06/16 10:16:49;;;;;;;3.80;3.40;;;;;;;31.81;19.43;99485.34;4939059;29;20466;-80
2023/06/16 10:19:18;;;;;;;8.00;4.97;;;;;;;31.98;18.84;99495.50;4936753;29;20491;-85
2023/06/16 10:21:44;;;;;;;4.17;3.77;;;;;;;32.04;19.07;99491.81;4946071;29;20463;-80
2023/06/16 10:24:10;;;;;;;8.17;4.27;;;;;;;32.10;18.88;99488.13;4955829;29;20475;-84
2023/06/16 10:26:36;;;;;;;4.33;3.53;;;;;;;32.17;18.57;99483.38;4948618;29;20451;-81
2023/06/16 10:29:03;;;;;;;4.33;3.93;;;;;;;32.10;17.80;99486.22;4946291;29;20466;-83
2023/06/16 10:31:28;;;;;;;4.70;3.70;;;;;;;31.86;17.68;99481.91;4949209;28;20546;-80
2023/06/16 10:33:58;;;;;;;4.03;3.67;;;;;;;31.62;17.14;99487.41;4934158;29;20551;-80
2023/06/16 10:36:28;;;;;;;3.70;3.30;;;;;;;31.66;17.22;99488.56;4948708;29;20194;-83
2023/06/16 10:38:57;;;;;;;4.47;4.07;;;;;;;31.78;17.42;99480.38;4954706;29;20478;-82
2023/06/16 10:41:23;;;;;;;4.10;3.80;;;;;;;31.90;17.46;99483.91;4949815;29;20464;-82
2023/06/16 10:43:48;;;;;;;4.07;3.67;;;;;;;32.01;17.52;99490.41;4946783;29;20474;-84
2023/06/16 10:46:18;;;;;;;4.30;3.90;;;;;;;32.07;17.62;99485.91;4932272;29;20965;-82
2023/06/16 10:49:07;;;;;;;5.20;4.13;;;;;;;32.20;17.32;99479.34;4942694;29;20685;-82
2023/06/16 10:51:49;;;;;;;8.23;4.90;;;;;;;32.23;16.47;99481.59;4946809;29;20462;-84
2023/06/16 10:54:32;;;;;;;4.00;3.60;;;;;;;32.03;16.52;99473.84;4941629;29;20500;-81
2023/06/16 10:57:03;;;;;;;4.03;3.73;;;;;;;31.87;16.48;99478.97;4939978;29;20972;-84
2023/06/16 10:59:28;;;;;;;5.30;3.73;;;;;;;31.96;16.96;99477.53;4941989;29;20524;-81
2023/06/16 11:01:58;;;;;;;3.83;3.47;;;;;;;31.93;17.17;99479.91;4945055;29;20483;-85
2023/06/16 11:04:24;;;;;;;3.97;3.67;;;;;;;31.90;16.86;99478.47;4934320;29;20249;-81
2023/06/16 11:07:05;;;;;;;4.30;3.73;;;;;;;31.81;16.70;99477.22;4937071;29;20848;-81
2023/06/16 11:09:31;;;;;;;7.20;4.00;;;;;;;31.78;17.08;99483.09;4924813;29;20490;-82
2023/06/16 11:12:02;;;;;;;5.17;4.30;;;;;;;31.79;16.79;99476.63;4938300;29;20520;-82
2023/06/16 11:14:28;;;;;;;4.60;4.10;;;;;;;31.80;16.75;99472.00;4939281;29;20458;-84
2023/06/16 11:16:55;;;;;;;4.37;3.97;;;;;;;31.71;16.91;99468.84;4932712;29;20473;-81
2023/06/16 11:19:20;;;;;;;5.33;3.93;;;;;;;31.67;16.96;99460.31;4921350;29;21191;-84
2023/06/16 11:21:46;;;;;;;5.47;4.53;;;;;;;31.65;17.16;99464.34;4941991;29;20469;-80
2023/06/16 11:24:13;;;;;;;5.20;4.77;;;;;;;31.64;17.35;99460.00;4936898;29;20202;-80
2023/06/16 11:26:39;;;;;;;4.80;4.20;;;;;;;31.57;17.66;99457.41;4943286;29;20529;-80
2023/06/16 11:29:08;;;;;;;4.00;3.70;;;;;;;31.55;18.47;99464.16;4918436;29;20463;-81
2023/06/16 11:31:37;;;;;;;4.43;3.87;;;;;;;31.66;18.06;99469.56;4937449;29;20474;-80
2023/06/16 11:34:03;;;;;;;4.80;3.47;;;;;;;31.81;18.05;99460.91;4934785;29;20457;-80
2023/06/16 11:36:29;;;;;;;4.83;4.30;;;;;;;31.91;18.14;99452.94;4946755;29;20434;-81
2023/06/16 11:39:00;;;;;;;4.40;3.50;;;;;;;32.05;17.80;99455.41;4938017;29;20842;-82
2023/06/16 11:41:27;;;;;;;4.37;3.97;;;;;;;32.13;18.17;99449.59;4944683;29;20739;-80
2023/06/16 11:43:53;;;;;;;4.40;4.00;;;;;;;32.24;17.87;99445.19;4946782;29;20607;-80